sensor_id;sensor_type;location;lat;lon;timestamp;pressure;altitude;pressure_sealevel;temperature;humidity
42519;BME280;28147;47.520;18.920;2023-05-21T00:00:09;98599.31;;;22.54;46.29
42519;BME280;28147;47.520;18.920;2023-05-21T00:02:36;98595.38;;;22.10;47.79
42519;BME280;28147;47.520;18.920;2023-05-21T00:05:02;98594.94;;;22.31;46.85
42519;BME280;28147;47.520;18.920;2023-05-21T00:07:27;98589.16;;;22.46;46.85
42519;BME280;28147;47.520;18.920;2023-05-21T00:09:52;98588.94;;;22.56;46.45
42519;BME280;28147;47.520;18.920;2023-05-21T00:12:18;98587.63;;;22.54;46.77
42519;BME280;28147;47.520;18.920;2023-05-21T00:14:43;98585.28;;;22.39;46.69
42519;BME280;28147;47.520;18.920;2023-05-21T00:17:09;98593.81;;;22.68;46.44
42519;BME280;28147;47.520;18.920;2023-05-21T00:19:34;98591.09;;;22.46;46.72
42519;BME280;28147;47.520;18.920;2023-05-21T00:22:00;98596.44;;;22.37;46.95
42519;BME280;28147;47.520;18.920;2023-05-21T00:24:28;98591.59;;;22.48;47.05
42519;BME280;28147;47.520;18.920;2023-05-21T00:26:54;98587.53;;;22.23;47.19
42519;BME280;28147;47.520;18.920;2023-05-21T00:29:20;98593.25;;;22.35;47.19
42519;BME280;28147;47.520;18.920;2023-05-21T00:31:45;98598.00;;;22.16;47.62
42519;BME280;28147;47.520;18.920;2023-05-21T00:34:12;98596.91;;;22.17;47.19
42519;BME280;28147;47.520;18.920;2023-05-21T00:36:37;98596.41;;;21.87;48.15
42519;BME280;28147;47.520;18.920;2023-05-21T00:39:04;98598.41;;;21.81;47.90
42519;BME280;28147;47.520;18.920;2023-05-21T00:41:30;98589.16;;;22.24;46.93
42519;BME280;28147;47.520;18.920;2023-05-21T00:43:55;98597.38;;;22.32;46.79
42519;BME280;28147;47.520;18.920;2023-05-21T00:46:21;98582.34;;;21.99;47.20
42519;BME280;28147;47.520;18.920;2023-05-21T00:48:47;98586.84;;;22.17;47.10
42519;BME280;28147;47.520;18.920;2023-05-21T00:51:13;98585.19;;;21.80;47.39
42519;BME280;28147;47.520;18.920;2023-05-21T00:53:39;98579.25;;;21.78;48.04
42519;BME280;28147;47.520;18.920;2023-05-21T00:56:05;98581.56;;;21.84;47.61
42519;BME280;28147;47.520;18.920;2023-05-21T00:58:32;98570.91;;;21.74;47.91
42519;BME280;28147;47.520;18.920;2023-05-21T01:00:58;98566.53;;;21.78;47.76
42519;BME280;28147;47.520;18.920;2023-05-21T01:03:29;98573.63;;;21.88;47.95
42519;BME280;28147;47.520;18.920;2023-05-21T01:05:54;98568.91;;;21.80;48.21
42519;BME280;28147;47.520;18.920;2023-05-21T01:08:24;98571.69;;;22.02;47.90
42519;BME280;28147;47.520;18.920;2023-05-21T01:10:51;98571.09;;;21.92;48.06
42519;BME280;28147;47.520;18.920;2023-05-21T01:13:18;98575.59;;;21.96;48.06
42519;BME280;28147;47.520;18.920;2023-05-21T01:15:48;98572.19;;;22.04;47.77
42519;BME280;28147;47.520;18.920;2023-05-21T01:18:14;98573.28;;;22.03;47.74
42519;BME280;28147;47.520;18.920;2023-05-21T01:20:40;98577.94;;;21.89;47.91
42519;BME280;28147;47.520;18.920;2023-05-21T01:23:07;98562.97;;;22.05;47.69
42519;BME280;28147;47.520;18.920;2023-05-21T01:25:33;98564.16;;;21.99;47.84
42519;BME280;28147;47.520;18.920;2023-05-21T01:27:59;98562.28;;;21.58;49.07
42519;BME280;28147;47.520;18.920;2023-05-21T01:30:25;98558.09;;;21.38;49.60
42519;BME280;28147;47.520;18.920;2023-05-21T01:35:26;98561.59;;;21.53;49.49
42519;BME280;28147;47.520;18.920;2023-05-21T01:41:06;98556.63;;;21.13;50.47
42519;BME280;28147;47.520;18.920;2023-05-21T01:43:37;98565.22;;;21.02;50.54
42519;BME280;28147;47.520;18.920;2023-05-21T01:46:04;98569.56;;;21.17;50.52
42519;BME280;28147;47.520;18.920;2023-05-21T01:48:31;98569.13;;;20.96;50.69
42519;BME280;28147;47.520;18.920;2023-05-21T01:50:59;98569.34;;;20.99;50.89
42519;BME280;28147;47.520;18.920;2023-05-21T01:53:26;98571.06;;;21.09;50.81
42519;BME280;28147;47.520;18.920;2023-05-21T01:55:51;98568.47;;;21.18;50.28
42519;BME280;28147;47.520;18.920;2023-05-21T01:58:19;98570.03;;;20.91;50.94
42519;BME280;28147;47.520;18.920;2023-05-21T02:00:45;98570.03;;;21.05;51.16
42519;BME280;28147;47.520;18.920;2023-05-21T02:03:12;98574.75;;;21.13;50.37
42519;BME280;28147;47.520;18.920;2023-05-21T02:05:39;98572.47;;;21.20;50.11
42519;BME280;28147;47.520;18.920;2023-05-21T02:08:04;98569.28;;;21.18;50.08
42519;BME280;28147;47.520;18.920;2023-05-21T02:10:32;98575.06;;;21.11;49.98
42519;BME280;28147;47.520;18.920;2023-05-21T02:12:58;98579.75;;;21.06;50.45
42519;BME280;28147;47.520;18.920;2023-05-21T02:15:23;98576.25;;;21.05;50.61
42519;BME280;28147;47.520;18.920;2023-05-21T02:17:49;98567.97;;;20.83;50.92
42519;BME280;28147;47.520;18.920;2023-05-21T02:20:15;98574.25;;;20.97;50.22
42519;BME280;28147;47.520;18.920;2023-05-21T02:22:44;98568.75;;;20.70;51.25
42519;BME280;28147;47.520;18.920;2023-05-21T02:25:11;98565.44;;;21.05;50.62
42519;BME280;28147;47.520;18.920;2023-05-21T02:27:38;98557.94;;;20.83;51.01
42519;BME280;28147;47.520;18.920;2023-05-21T02:30:09;98564.84;;;20.76;50.79
42519;BME280;28147;47.520;18.920;2023-05-21T02:32:35;98558.31;;;20.96;50.33
42519;BME280;28147;47.520;18.920;2023-05-21T02:35:01;98557.16;;;20.83;50.70
42519;BME280;28147;47.520;18.920;2023-05-21T02:37:28;98564.59;;;20.58;51.58
42519;BME280;28147;47.520;18.920;2023-05-21T02:39:54;98572.41;;;20.60;51.40
42519;BME280;28147;47.520;18.920;2023-05-21T02:42:22;98568.09;;;20.59;51.51
42519;BME280;28147;47.520;18.920;2023-05-21T02:44:49;98563.56;;;20.35;51.99
42519;BME280;28147;47.520;18.920;2023-05-21T02:47:15;98564.06;;;20.37;51.94
42519;BME280;28147;47.520;18.920;2023-05-21T02:49:41;98561.06;;;20.77;50.77
42519;BME280;28147;47.520;18.920;2023-05-21T02:52:06;98552.53;;;20.83;50.93
42519;BME280;28147;47.520;18.920;2023-05-21T02:54:31;98561.81;;;20.45;51.22
42519;BME280;28147;47.520;18.920;2023-05-21T02:56:57;98559.84;;;20.69;50.93
42519;BME280;28147;47.520;18.920;2023-05-21T02:59:22;98561.44;;;20.70;50.62
42519;BME280;28147;47.520;18.920;2023-05-21T03:01:48;98557.34;;;20.73;50.54
42519;BME280;28147;47.520;18.920;2023-05-21T03:04:13;98553.88;;;20.53;50.91
42519;BME280;28147;47.520;18.920;2023-05-21T03:06:39;98561.53;;;20.65;50.99
42519;BME280;28147;47.520;18.920;2023-05-21T03:09:04;98566.38;;;20.82;50.05
42519;BME280;28147;47.520;18.920;2023-05-21T03:11:30;98560.94;;;20.49;50.88
42519;BME280;28147;47.520;18.920;2023-05-21T03:13:56;98569.50;;;20.56;51.20
42519;BME280;28147;47.520;18.920;2023-05-21T03:16:21;98567.22;;;20.63;50.77
42519;BME280;28147;47.520;18.920;2023-05-21T03:18:47;98559.31;;;20.67;50.17
42519;BME280;28147;47.520;18.920;2023-05-21T03:21:12;98573.88;;;20.52;50.75
42519;BME280;28147;47.520;18.920;2023-05-21T03:23:42;98565.94;;;20.61;50.00
42519;BME280;28147;47.520;18.920;2023-05-21T03:26:07;98561.09;;;20.58;50.28
42519;BME280;28147;47.520;18.920;2023-05-21T03:28:36;98555.22;;;20.70;50.21
42519;BME280;28147;47.520;18.920;2023-05-21T03:31:01;98561.75;;;20.82;49.65
42519;BME280;28147;47.520;18.920;2023-05-21T03:33:26;98560.44;;;20.66;49.58
42519;BME280;28147;47.520;18.920;2023-05-21T03:35:52;98562.66;;;20.78;49.49
42519;BME280;28147;47.520;18.920;2023-05-21T03:38:18;98559.16;;;20.77;49.62
42519;BME280;28147;47.520;18.920;2023-05-21T03:40:43;98565.22;;;20.88;49.51
42519;BME280;28147;47.520;18.920;2023-05-21T03:43:09;98575.50;;;20.86;49.97
42519;BME280;28147;47.520;18.920;2023-05-21T03:45:34;98566.59;;;20.85;49.40
42519;BME280;28147;47.520;18.920;2023-05-21T03:48:00;98567.50;;;20.81;49.75
42519;BME280;28147;47.520;18.920;2023-05-21T03:50:26;98568.50;;;20.85;49.85
42519;BME280;28147;47.520;18.920;2023-05-21T03:52:51;98560.13;;;21.00;49.41
42519;BME280;28147;47.520;18.920;2023-05-21T03:55:17;98568.59;;;20.80;50.00
42519;BME280;28147;47.520;18.920;2023-05-21T03:57:42;98567.66;;;20.71;50.23
42519;BME280;28147;47.520;18.920;2023-05-21T04:00:08;98563.09;;;20.85;50.28
42519;BME280;28147;47.520;18.920;2023-05-21T04:02:34;98565.22;;;20.88;50.67
42519;BME280;28147;47.520;18.920;2023-05-21T04:04:59;98569.50;;;20.89;50.13
42519;BME280;28147;47.520;18.920;2023-05-21T04:07:25;98566.25;;;20.73;50.48
42519;BME280;28147;47.520;18.920;2023-05-21T04:09:51;98577.72;;;20.84;49.91
42519;BME280;28147;47.520;18.920;2023-05-21T04:12:17;98570.78;;;20.78;50.24
42519;BME280;28147;47.520;18.920;2023-05-21T04:14:44;98575.81;;;20.84;49.65
42519;BME280;28147;47.520;18.920;2023-05-21T04:17:10;98575.94;;;20.93;50.05
42519;BME280;28147;47.520;18.920;2023-05-21T04:19:37;98579.16;;;20.95;50.05
42519;BME280;28147;47.520;18.920;2023-05-21T04:22:03;98574.81;;;20.94;49.04
42519;BME280;28147;47.520;18.920;2023-05-21T04:24:29;98583.09;;;21.03;49.41
42519;BME280;28147;47.520;18.920;2023-05-21T04:26:54;98586.63;;;21.31;48.80
42519;BME280;28147;47.520;18.920;2023-05-21T04:29:21;98577.09;;;21.20;49.06
42519;BME280;28147;47.520;18.920;2023-05-21T04:31:47;98585.31;;;21.28;48.84
42519;BME280;28147;47.520;18.920;2023-05-21T04:34:13;98568.06;;;21.10;49.22
42519;BME280;28147;47.520;18.920;2023-05-21T04:36:42;98580.69;;;21.29;48.67
42519;BME280;28147;47.520;18.920;2023-05-21T04:39:12;98582.31;;;22.13;47.13
42519;BME280;28147;47.520;18.920;2023-05-21T04:41:39;98572.41;;;22.44;45.86
42519;BME280;28147;47.520;18.920;2023-05-21T04:44:07;98577.69;;;22.13;46.27
42519;BME280;28147;47.520;18.920;2023-05-21T04:46:33;98575.88;;;22.22;46.38
42519;BME280;28147;47.520;18.920;2023-05-21T04:49:02;98584.16;;;22.17;46.16
42519;BME280;28147;47.520;18.920;2023-05-21T04:51:28;98582.34;;;21.99;46.95
42519;BME280;28147;47.520;18.920;2023-05-21T04:53:54;98580.13;;;22.15;47.46
42519;BME280;28147;47.520;18.920;2023-05-21T04:56:20;98580.84;;;22.65;45.88
42519;BME280;28147;47.520;18.920;2023-05-21T04:58:54;98574.16;;;22.63;45.43
42519;BME280;28147;47.520;18.920;2023-05-21T05:01:20;98592.09;;;22.72;45.39
42519;BME280;28147;47.520;18.920;2023-05-21T05:03:53;98579.94;;;22.47;45.68
42519;BME280;28147;47.520;18.920;2023-05-21T05:06:18;98590.50;;;22.94;44.29
42519;BME280;28147;47.520;18.920;2023-05-21T05:08:45;98579.31;;;22.73;45.48
42519;BME280;28147;47.520;18.920;2023-05-21T05:11:11;98571.38;;;23.30;43.66
42519;BME280;28147;47.520;18.920;2023-05-21T05:13:38;98576.00;;;22.98;44.86
42519;BME280;28147;47.520;18.920;2023-05-21T05:16:04;98568.53;;;23.35;44.33
42519;BME280;28147;47.520;18.920;2023-05-21T05:18:30;98573.03;;;22.86;45.50
42519;BME280;28147;47.520;18.920;2023-05-21T05:20:55;98570.84;;;22.29;45.55
42519;BME280;28147;47.520;18.920;2023-05-21T05:23:21;98564.56;;;22.88;45.54
42519;BME280;28147;47.520;18.920;2023-05-21T05:25:46;98557.97;;;22.57;45.63
42519;BME280;28147;47.520;18.920;2023-05-21T05:28:11;98558.53;;;22.68;45.18
42519;BME280;28147;47.520;18.920;2023-05-21T05:30:37;98567.78;;;22.90;44.69
42519;BME280;28147;47.520;18.920;2023-05-21T05:33:02;98558.72;;;22.94;44.65
42519;BME280;28147;47.520;18.920;2023-05-21T05:35:28;98566.66;;;22.91;44.19
42519;BME280;28147;47.520;18.920;2023-05-21T05:37:53;98563.09;;;22.81;45.05
42519;BME280;28147;47.520;18.920;2023-05-21T05:40:19;98572.66;;;22.79;44.77
42519;BME280;28147;47.520;18.920;2023-05-21T05:42:44;98561.81;;;23.01;44.75
42519;BME280;28147;47.520;18.920;2023-05-21T05:45:10;98560.78;;;23.20;44.09
42519;BME280;28147;47.520;18.920;2023-05-21T05:47:36;98554.16;;;23.43;43.31
42519;BME280;28147;47.520;18.920;2023-05-21T05:50:01;98556.81;;;23.26;43.94
42519;BME280;28147;47.520;18.920;2023-05-21T05:52:27;98553.59;;;23.64;43.44
42519;BME280;28147;47.520;18.920;2023-05-21T05:54:52;98548.38;;;23.36;43.22
42519;BME280;28147;47.520;18.920;2023-05-21T05:57:17;98552.69;;;23.68;43.85
42519;BME280;28147;47.520;18.920;2023-05-21T05:59:43;98549.25;;;23.54;43.47
42519;BME280;28147;47.520;18.920;2023-05-21T06:02:08;98552.25;;;23.04;43.37
42519;BME280;28147;47.520;18.920;2023-05-21T06:04:34;98547.94;;;23.43;43.03
42519;BME280;28147;47.520;18.920;2023-05-21T06:06:59;98548.28;;;23.98;42.83
42519;BME280;28147;47.520;18.920;2023-05-21T06:09:25;98550.31;;;23.84;42.26
42519;BME280;28147;47.520;18.920;2023-05-21T06:11:50;98552.16;;;24.49;41.42
42519;BME280;28147;47.520;18.920;2023-05-21T06:14:16;98548.66;;;23.66;42.55
42519;BME280;28147;47.520;18.920;2023-05-21T06:16:41;98562.63;;;23.73;42.71
42519;BME280;28147;47.520;18.920;2023-05-21T06:19:07;98548.59;;;24.23;41.32
42519;BME280;28147;47.520;18.920;2023-05-21T06:21:32;98545.88;;;24.23;41.28
42519;BME280;28147;47.520;18.920;2023-05-21T06:23:58;98550.88;;;24.56;41.27
42519;BME280;28147;47.520;18.920;2023-05-21T06:26:23;98557.91;;;24.74;41.27
42519;BME280;28147;47.520;18.920;2023-05-21T06:28:49;98555.00;;;24.10;41.27
42519;BME280;28147;47.520;18.920;2023-05-21T06:31:15;98556.63;;;24.71;40.50
42519;BME280;28147;47.520;18.920;2023-05-21T06:33:40;98547.97;;;24.78;40.78
42519;BME280;28147;47.520;18.920;2023-05-21T06:36:06;98561.66;;;25.08;39.79
42519;BME280;28147;47.520;18.920;2023-05-21T06:38:32;98556.75;;;24.84;40.18
42519;BME280;28147;47.520;18.920;2023-05-21T06:40:58;98551.50;;;25.64;39.62
42519;BME280;28147;47.520;18.920;2023-05-21T06:43:23;98552.31;;;25.26;39.13
42519;BME280;28147;47.520;18.920;2023-05-21T06:45:49;98548.53;;;26.28;38.11
42519;BME280;28147;47.520;18.920;2023-05-21T06:48:14;98545.19;;;24.95;38.95
42519;BME280;28147;47.520;18.920;2023-05-21T06:50:41;98537.25;;;25.29;38.61
42519;BME280;28147;47.520;18.920;2023-05-21T06:53:07;98542.00;;;25.79;38.67
42519;BME280;28147;47.520;18.920;2023-05-21T06:55:32;98548.09;;;25.46;38.48
42519;BME280;28147;47.520;18.920;2023-05-21T06:57:58;98555.16;;;24.83;38.81
42519;BME280;28147;47.520;18.920;2023-05-21T07:00:23;98550.59;;;25.89;37.83
42519;BME280;28147;47.520;18.920;2023-05-21T07:02:49;98549.47;;;25.90;37.80
42519;BME280;28147;47.520;18.920;2023-05-21T07:05:14;98547.44;;;25.79;38.80
42519;BME280;28147;47.520;18.920;2023-05-21T07:07:40;98539.09;;;26.05;37.27
42519;BME280;28147;47.520;18.920;2023-05-21T07:10:06;98542.22;;;25.94;37.69
42519;BME280;28147;47.520;18.920;2023-05-21T07:12:32;98539.22;;;25.87;37.55
42519;BME280;28147;47.520;18.920;2023-05-21T07:14:58;98539.44;;;26.03;38.43
42519;BME280;28147;47.520;18.920;2023-05-21T07:17:23;98541.88;;;26.59;37.42
42519;BME280;28147;47.520;18.920;2023-05-21T07:19:48;98545.47;;;26.72;38.03
42519;BME280;28147;47.520;18.920;2023-05-21T07:22:14;98538.34;;;26.91;36.27
42519;BME280;28147;47.520;18.920;2023-05-21T07:24:40;98528.59;;;26.15;37.22
42519;BME280;28147;47.520;18.920;2023-05-21T07:27:05;98539.53;;;26.69;37.28
42519;BME280;28147;47.520;18.920;2023-05-21T07:29:32;98531.56;;;27.10;37.13
42519;BME280;28147;47.520;18.920;2023-05-21T07:31:57;98530.72;;;26.10;36.83
42519;BME280;28147;47.520;18.920;2023-05-21T07:34:23;98530.09;;;26.67;36.93
42519;BME280;28147;47.520;18.920;2023-05-21T07:36:48;98526.09;;;26.43;36.64
42519;BME280;28147;47.520;18.920;2023-05-21T07:39:14;98525.38;;;27.01;36.96
42519;BME280;28147;47.520;18.920;2023-05-21T07:41:39;98525.69;;;27.20;35.84
42519;BME280;28147;47.520;18.920;2023-05-21T07:44:05;98531.47;;;27.19;36.10
42519;BME280;28147;47.520;18.920;2023-05-21T07:46:33;98533.97;;;27.73;35.35
42519;BME280;28147;47.520;18.920;2023-05-21T07:48:58;98533.47;;;26.97;36.64
42519;BME280;28147;47.520;18.920;2023-05-21T07:51:24;98525.59;;;26.83;35.82
42519;BME280;28147;47.520;18.920;2023-05-21T07:53:50;98528.97;;;27.38;35.83
42519;BME280;28147;47.520;18.920;2023-05-21T07:56:16;98524.91;;;26.86;35.97
42519;BME280;28147;47.520;18.920;2023-05-21T07:58:41;98537.59;;;27.03;35.35
42519;BME280;28147;47.520;18.920;2023-05-21T08:01:10;98532.19;;;26.82;36.06
42519;BME280;28147;47.520;18.920;2023-05-21T08:03:36;98525.56;;;27.41;37.30
42519;BME280;28147;47.520;18.920;2023-05-21T08:06:02;98530.69;;;26.73;35.86
42519;BME280;28147;47.520;18.920;2023-05-21T08:08:27;98525.97;;;26.94;36.56
42519;BME280;28147;47.520;18.920;2023-05-21T08:10:53;98530.16;;;26.91;35.29
42519;BME280;28147;47.520;18.920;2023-05-21T08:13:18;98534.25;;;27.43;35.73
42519;BME280;28147;47.520;18.920;2023-05-21T08:15:43;98528.72;;;27.06;36.08
42519;BME280;28147;47.520;18.920;2023-05-21T08:18:09;98534.63;;;27.08;35.56
42519;BME280;28147;47.520;18.920;2023-05-21T08:20:35;98526.38;;;27.17;35.29
42519;BME280;28147;47.520;18.920;2023-05-21T08:23:01;98524.44;;;27.42;34.89
42519;BME280;28147;47.520;18.920;2023-05-21T08:25:26;98519.09;;;27.58;34.89
42519;BME280;28147;47.520;18.920;2023-05-21T08:27:53;98530.13;;;27.25;35.20
42519;BME280;28147;47.520;18.920;2023-05-21T08:30:19;98528.19;;;27.62;35.57
42519;BME280;28147;47.520;18.920;2023-05-21T08:32:44;98531.63;;;27.47;34.29
42519;BME280;28147;47.520;18.920;2023-05-21T08:35:09;98520.91;;;27.41;34.72
42519;BME280;28147;47.520;18.920;2023-05-21T08:37:35;98528.44;;;27.20;35.55
42519;BME280;28147;47.520;18.920;2023-05-21T08:40:01;98531.50;;;27.92;34.62
42519;BME280;28147;47.520;18.920;2023-05-21T08:42:33;98528.84;;;28.08;35.68
42519;BME280;28147;47.520;18.920;2023-05-21T08:45:03;98531.97;;;28.63;34.74
42519;BME280;28147;47.520;18.920;2023-05-21T08:47:31;98522.91;;;28.06;34.45
42519;BME280;28147;47.520;18.920;2023-05-21T08:49:59;98531.06;;;28.30;34.37
42519;BME280;28147;47.520;18.920;2023-05-21T08:52:24;98518.53;;;28.17;34.67
42519;BME280;28147;47.520;18.920;2023-05-21T08:54:52;98534.13;;;28.69;34.51
42519;BME280;28147;47.520;18.920;2023-05-21T08:57:19;98529.44;;;28.42;35.86
42519;BME280;28147;47.520;18.920;2023-05-21T08:59:44;98519.13;;;28.51;33.77
42519;BME280;28147;47.520;18.920;2023-05-21T09:02:11;98521.91;;;27.98;34.91
42519;BME280;28147;47.520;18.920;2023-05-21T09:04:39;98526.31;;;29.15;33.86
42519;BME280;28147;47.520;18.920;2023-05-21T09:07:09;98521.31;;;29.84;34.33
42519;BME280;28147;47.520;18.920;2023-05-21T09:09:46;98516.22;;;28.88;34.05
42519;BME280;28147;47.520;18.920;2023-05-21T09:12:12;98522.28;;;28.25;34.25
42519;BME280;28147;47.520;18.920;2023-05-21T09:14:38;98517.94;;;28.64;34.30
42519;BME280;28147;47.520;18.920;2023-05-21T09:17:04;98519.72;;;28.44;33.90
42519;BME280;28147;47.520;18.920;2023-05-21T09:19:29;98530.81;;;28.64;34.18
42519;BME280;28147;47.520;18.920;2023-05-21T09:22:05;98521.97;;;29.46;33.88
42519;BME280;28147;47.520;18.920;2023-05-21T09:24:30;98529.69;;;29.08;33.29
42519;BME280;28147;47.520;18.920;2023-05-21T09:26:56;98529.16;;;28.75;32.52
42519;BME280;28147;47.520;18.920;2023-05-21T09:29:23;98529.06;;;28.15;32.99
42519;BME280;28147;47.520;18.920;2023-05-21T09:31:50;98528.38;;;28.90;33.58
42519;BME280;28147;47.520;18.920;2023-05-21T09:34:16;98524.47;;;29.03;32.79
42519;BME280;28147;47.520;18.920;2023-05-21T09:36:41;98517.88;;;28.76;32.31
42519;BME280;28147;47.520;18.920;2023-05-21T09:39:08;98525.34;;;29.07;32.19
42519;BME280;28147;47.520;18.920;2023-05-21T09:41:36;98525.97;;;29.01;31.88
42519;BME280;28147;47.520;18.920;2023-05-21T09:44:02;98527.56;;;29.33;33.23
42519;BME280;28147;47.520;18.920;2023-05-21T09:46:37;98527.56;;;30.00;33.19
42519;BME280;28147;47.520;18.920;2023-05-21T09:49:02;98524.41;;;30.18;31.37
42519;BME280;28147;47.520;18.920;2023-05-21T09:51:28;98518.97;;;29.67;31.67
42519;BME280;28147;47.520;18.920;2023-05-21T09:53:55;98521.44;;;29.56;32.13
42519;BME280;28147;47.520;18.920;2023-05-21T09:56:27;98521.13;;;29.26;31.87
42519;BME280;28147;47.520;18.920;2023-05-21T09:58:59;98518.34;;;29.57;31.49
42519;BME280;28147;47.520;18.920;2023-05-21T10:01:26;98517.84;;;29.87;31.03
42519;BME280;28147;47.520;18.920;2023-05-21T10:03:57;98515.34;;;29.98;31.73
42519;BME280;28147;47.520;18.920;2023-05-21T10:06:25;98524.56;;;29.70;31.03
42519;BME280;28147;47.520;18.920;2023-05-21T10:08:53;98524.88;;;29.69;30.84
42519;BME280;28147;47.520;18.920;2023-05-21T10:11:22;98520.13;;;30.01;30.51
42519;BME280;28147;47.520;18.920;2023-05-21T10:14:06;98507.72;;;30.26;29.92
42519;BME280;28147;47.520;18.920;2023-05-21T10:16:33;98517.38;;;29.34;30.02
42519;BME280;28147;47.520;18.920;2023-05-21T10:18:59;98511.13;;;30.39;29.69
42519;BME280;28147;47.520;18.920;2023-05-21T10:21:27;98517.69;;;29.80;30.00
42519;BME280;28147;47.520;18.920;2023-05-21T10:23:54;98502.41;;;29.98;30.06
42519;BME280;28147;47.520;18.920;2023-05-21T10:26:23;98498.00;;;29.94;30.13
42519;BME280;28147;47.520;18.920;2023-05-21T10:28:50;98494.06;;;29.75;30.51
42519;BME280;28147;47.520;18.920;2023-05-21T10:31:16;98492.16;;;29.95;31.57
42519;BME280;28147;47.520;18.920;2023-05-21T10:33:42;98499.44;;;30.85;29.88
42519;BME280;28147;47.520;18.920;2023-05-21T10:36:08;98503.66;;;30.01;29.88
42519;BME280;28147;47.520;18.920;2023-05-21T10:38:35;98498.75;;;30.49;29.57
42519;BME280;28147;47.520;18.920;2023-05-21T10:41:02;98489.63;;;30.45;29.25
42519;BME280;28147;47.520;18.920;2023-05-21T10:43:44;98494.09;;;30.72;30.33
42519;BME280;28147;47.520;18.920;2023-05-21T10:46:35;98497.91;;;31.10;29.26
42519;BME280;28147;47.520;18.920;2023-05-21T11:02:19;98490.28;;;30.38;29.31
42519;BME280;28147;47.520;18.920;2023-05-21T11:04:48;98483.22;;;30.37;30.15
42519;BME280;28147;47.520;18.920;2023-05-21T11:07:22;98493.84;;;30.39;29.09
42519;BME280;28147;47.520;18.920;2023-05-21T11:09:51;98489.72;;;31.14;31.00
42519;BME280;28147;47.520;18.920;2023-05-21T11:12:17;98487.59;;;31.04;29.18
42519;BME280;28147;47.520;18.920;2023-05-21T11:15:05;98480.34;;;30.72;28.42
42519;BME280;28147;47.520;18.920;2023-05-21T11:17:38;98486.56;;;30.69;28.58
42519;BME280;28147;47.520;18.920;2023-05-21T11:20:12;98480.75;;;30.94;28.32
42519;BME280;28147;47.520;18.920;2023-05-21T11:22:40;98483.13;;;30.14;29.38
42519;BME280;28147;47.520;18.920;2023-05-21T11:25:06;98476.47;;;30.15;28.59
42519;BME280;28147;47.520;18.920;2023-05-21T11:33:16;98489.19;;;30.62;30.82
42519;BME280;28147;47.520;18.920;2023-05-21T11:35:26;98477.38;;;29.65;30.28
42519;BME280;28147;47.520;18.920;2023-05-21T11:37:55;98470.56;;;29.94;29.77
42519;BME280;28147;47.520;18.920;2023-05-21T11:42:51;98475.84;;;30.41;29.69
42519;BME280;28147;47.520;18.920;2023-05-21T11:45:18;98476.84;;;30.14;29.67
42519;BME280;28147;47.520;18.920;2023-05-21T11:47:45;98479.09;;;30.08;30.95
42519;BME280;28147;47.520;18.920;2023-05-21T11:50:12;98475.25;;;30.94;30.52
42519;BME280;28147;47.520;18.920;2023-05-21T11:52:39;98482.03;;;31.00;30.30
42519;BME280;28147;47.520;18.920;2023-05-21T11:55:06;98470.56;;;29.94;30.46
42519;BME280;28147;47.520;18.920;2023-05-21T11:57:34;98479.50;;;29.91;29.08
42519;BME280;28147;47.520;18.920;2023-05-21T12:00:01;98477.56;;;30.11;29.12
42519;BME280;28147;47.520;18.920;2023-05-21T12:02:30;98478.25;;;29.53;29.19
42519;BME280;28147;47.520;18.920;2023-05-21T12:04:56;98475.38;;;29.81;30.34
42519;BME280;28147;47.520;18.920;2023-05-21T12:07:26;98463.66;;;30.62;29.17
42519;BME280;28147;47.520;18.920;2023-05-21T12:09:55;98466.00;;;29.82;27.97
42519;BME280;28147;47.520;18.920;2023-05-21T12:12:22;98463.53;;;29.10;30.02
42519;BME280;28147;47.520;18.920;2023-05-21T12:14:49;98463.25;;;29.15;29.91
42519;BME280;28147;47.520;18.920;2023-05-21T12:17:16;98458.94;;;29.14;30.60
42519;BME280;28147;47.520;18.920;2023-05-21T12:19:43;98455.41;;;29.65;30.04
42519;BME280;28147;47.520;18.920;2023-05-21T12:22:09;98450.34;;;30.21;28.80
42519;BME280;28147;47.520;18.920;2023-05-21T12:24:35;98454.97;;;29.47;29.88
42519;BME280;28147;47.520;18.920;2023-05-21T12:27:05;98450.97;;;29.95;30.05
42519;BME280;28147;47.520;18.920;2023-05-21T12:29:38;98456.69;;;29.87;29.24
42519;BME280;28147;47.520;18.920;2023-05-21T12:32:06;98461.63;;;29.62;27.92
42519;BME280;28147;47.520;18.920;2023-05-21T12:34:52;98453.50;;;30.04;29.91
42519;BME280;28147;47.520;18.920;2023-05-21T12:37:25;98448.75;;;29.81;27.28
42519;BME280;28147;47.520;18.920;2023-05-21T12:39:52;98449.19;;;30.22;27.64
42519;BME280;28147;47.520;18.920;2023-05-21T12:42:30;98443.03;;;29.55;29.66
42519;BME280;28147;47.520;18.920;2023-05-21T12:44:56;98446.56;;;29.71;29.68
42519;BME280;28147;47.520;18.920;2023-05-21T12:47:23;98442.78;;;29.60;27.53
42519;BME280;28147;47.520;18.920;2023-05-21T12:49:56;98436.16;;;29.45;28.00
42519;BME280;28147;47.520;18.920;2023-05-21T12:52:22;98437.59;;;29.74;28.61
42519;BME280;28147;47.520;18.920;2023-05-21T12:54:50;98423.50;;;29.76;29.30
42519;BME280;28147;47.520;18.920;2023-05-21T12:57:16;98425.19;;;29.45;29.94
42519;BME280;28147;47.520;18.920;2023-05-21T13:02:33;98434.03;;;29.39;29.46
42519;BME280;28147;47.520;18.920;2023-05-21T13:05:03;98423.44;;;29.72;29.62
42519;BME280;28147;47.520;18.920;2023-05-21T13:07:30;98417.53;;;29.54;28.44
42519;BME280;28147;47.520;18.920;2023-05-21T13:09:56;98419.25;;;29.43;29.21
42519;BME280;28147;47.520;18.920;2023-05-21T13:12:24;98414.56;;;29.79;29.74
42519;BME280;28147;47.520;18.920;2023-05-21T13:14:54;98409.94;;;30.22;29.24
42519;BME280;28147;47.520;18.920;2023-05-21T13:17:21;98414.56;;;29.44;30.27